createdAt,value
2017-08-28T00:00:35.525Z,0
2017-08-28T00:01:45.864Z,0
2017-08-28T00:02:56.207Z,0
2017-08-28T00:04:06.228Z,0
2017-08-28T00:05:16.621Z,0
2017-08-28T00:06:26.963Z,0
2017-08-28T00:07:37.353Z,0
2017-08-28T00:08:47.691Z,0
2017-08-28T00:09:58.036Z,0
2017-08-28T00:11:08.434Z,0
2017-08-28T00:12:18.455Z,0
2017-08-28T00:13:28.803Z,0
2017-08-28T00:14:39.139Z,0
2017-08-28T00:15:49.496Z,0
2017-08-28T00:16:59.894Z,0
2017-08-28T00:18:10.233Z,0
2017-08-28T00:19:20.572Z,0
2017-08-28T00:20:30.612Z,0
2017-08-28T00:21:40.638Z,0
2017-08-28T00:22:51.326Z,0
2017-08-28T00:24:01.683Z,0
2017-08-28T00:25:12.030Z,0
2017-08-28T00:26:22.377Z,0
2017-08-28T00:27:32.723Z,0
2017-08-28T00:28:42.504Z,0
2017-08-28T00:29:52.569Z,0
2017-08-28T00:31:02.920Z,0
2017-08-28T00:32:13.266Z,0
2017-08-28T00:33:23.636Z,0
2017-08-28T00:34:35.124Z,0
2017-08-28T00:35:45.470Z,0
2017-08-28T00:36:55.499Z,0
2017-08-28T00:38:05.530Z,0
2017-08-28T00:39:15.933Z,0
2017-08-28T00:40:26.333Z,0
2017-08-28T00:41:36.677Z,0
2017-08-28T00:42:47.023Z,0
2017-08-28T00:43:57.368Z,0
2017-08-28T00:45:07.394Z,0
2017-08-28T00:46:17.778Z,0
2017-08-28T00:47:28.183Z,0
2017-08-28T00:48:38.520Z,0
2017-08-28T00:49:48.862Z,0
2017-08-28T00:50:59.215Z,0
2017-08-28T00:52:09.296Z,0
2017-08-28T00:53:19.663Z,0
2017-08-28T00:54:30.000Z,0
2017-08-28T00:55:40.065Z,0
2017-08-28T00:56:50.435Z,0
2017-08-28T00:58:00.836Z,0
2017-08-28T00:59:11.184Z,0
2017-08-28T01:00:21.537Z,0
2017-08-28T01:01:31.901Z,0
2017-08-28T01:02:42.253Z,0
2017-08-28T01:03:52.320Z,0
2017-08-28T01:05:03.860Z,0
2017-08-28T01:06:14.202Z,0
2017-08-28T01:07:23.914Z,0
2017-08-28T01:08:33.945Z,0
2017-08-28T01:09:44.342Z,0
2017-08-28T01:10:54.359Z,0
2017-08-28T01:12:04.400Z,0
2017-08-28T01:13:14.105Z,0
2017-08-28T01:14:24.129Z,0
2017-08-28T01:15:34.199Z,0
2017-08-28T01:16:44.247Z,0
2017-08-28T01:17:54.596Z,0
2017-08-28T01:19:04.925Z,0
2017-08-28T01:20:15.280Z,0
2017-08-28T01:21:25.675Z,0
2017-08-28T01:22:38.089Z,0
2017-08-28T01:23:48.110Z,0
2017-08-28T01:24:58.143Z,0
2017-08-28T01:26:08.181Z,0
2017-08-28T01:27:18.574Z,0
2017-08-28T01:28:28.587Z,0
2017-08-28T01:29:38.927Z,0
2017-08-28T01:30:49.269Z,0
2017-08-28T01:31:59.627Z,0
2017-08-28T01:33:10.023Z,0
2017-08-28T01:34:20.120Z,0
2017-08-28T01:35:30.467Z,0
2017-08-28T01:36:40.812Z,0
2017-08-28T01:37:51.145Z,0
2017-08-28T01:39:01.229Z,0
2017-08-28T01:40:11.574Z,0
2017-08-28T01:41:21.917Z,0
2017-08-28T01:42:32.273Z,0
2017-08-28T01:43:42.620Z,0
2017-08-28T01:44:53.012Z,0
2017-08-28T01:46:03.380Z,0
2017-08-28T01:47:13.710Z,0
2017-08-28T01:48:24.042Z,0
2017-08-28T01:49:34.386Z,0
2017-08-28T01:50:44.773Z,0
2017-08-28T01:51:54.481Z,0
2017-08-28T01:53:04.845Z,0
2017-08-28T01:54:14.890Z,0
2017-08-28T01:55:25.263Z,0
2017-08-28T01:56:35.333Z,0
2017-08-28T01:57:49.127Z,0
2017-08-28T01:58:59.489Z,0
2017-08-28T02:00:09.537Z,0
2017-08-28T02:01:19.896Z,0
2017-08-28T02:02:30.307Z,0
2017-08-28T02:03:40.659Z,0
2017-08-28T02:04:51.028Z,0
2017-08-28T02:06:01.388Z,0
2017-08-28T02:07:11.759Z,0
2017-08-28T02:08:21.831Z,0
2017-08-28T02:09:31.869Z,0
2017-08-28T02:10:41.897Z,0
2017-08-28T02:11:53.837Z,0
2017-08-28T02:13:03.877Z,0
2017-08-28T02:14:13.950Z,0
2017-08-28T02:15:23.960Z,0
2017-08-28T02:16:34.312Z,0
2017-08-28T02:17:44.659Z,0
2017-08-28T02:18:55.023Z,0
2017-08-28T02:20:05.436Z,0
2017-08-28T02:21:15.565Z,0
2017-08-28T02:22:25.772Z,0
2017-08-28T02:23:36.126Z,0
2017-08-28T02:24:46.467Z,0
2017-08-28T02:25:56.527Z,0
2017-08-28T02:27:06.865Z,0
2017-08-28T02:28:16.896Z,0
2017-08-28T02:29:26.959Z,0
2017-08-28T02:30:36.668Z,0
2017-08-28T02:31:47.073Z,0
2017-08-28T02:32:57.429Z,0
2017-08-28T02:34:07.465Z,0
2017-08-28T02:35:17.811Z,0
2017-08-28T02:36:28.148Z,0
2017-08-28T02:37:38.545Z,0
2017-08-28T02:38:47.937Z,0
2017-08-28T02:39:58.008Z,0
2017-08-28T02:41:08.343Z,0
2017-08-28T02:42:18.672Z,0
2017-08-28T02:43:29.068Z,0
2017-08-28T02:44:39.096Z,0
2017-08-28T02:45:49.468Z,0
2017-08-28T02:46:59.499Z,0
2017-08-28T02:48:11.765Z,0
2017-08-28T02:49:21.849Z,0
2017-08-28T02:50:32.209Z,0
2017-08-28T02:51:42.569Z,0
2017-08-28T02:52:52.990Z,0
2017-08-28T02:54:03.340Z,0
2017-08-28T02:55:13.723Z,0
2017-08-28T02:56:24.068Z,0
2017-08-28T02:57:34.410Z,0
2017-08-28T02:58:44.749Z,0
2017-08-28T02:59:55.118Z,0
2017-08-28T03:01:05.245Z,0
2017-08-28T03:33:08.222Z,0
2017-08-28T03:34:18.245Z,0
2017-08-28T03:35:28.615Z,0
2017-08-28T03:36:38.965Z,0
2017-08-28T03:37:49.302Z,0
2017-08-28T03:38:59.688Z,0
2017-08-28T03:40:10.022Z,0
2017-08-28T03:41:20.063Z,0
2017-08-28T03:42:29.767Z,0
2017-08-28T03:43:40.096Z,0
2017-08-28T03:44:50.170Z,0
2017-08-28T03:46:00.525Z,0
2017-08-28T03:47:10.858Z,0
2017-08-28T03:48:21.207Z,0
2017-08-28T03:49:31.565Z,0
2017-08-28T03:50:41.335Z,0
2017-08-28T03:51:51.683Z,0
2017-08-28T03:53:02.029Z,0
2017-08-28T03:54:12.371Z,0
2017-08-28T03:55:22.718Z,0
2017-08-28T03:56:33.110Z,0
2017-08-28T03:57:43.465Z,0
2017-08-28T03:58:53.809Z,0
2017-08-28T04:00:04.167Z,0
2017-08-28T04:01:14.545Z,0
2017-08-28T04:02:24.945Z,0
2017-08-28T04:03:35.291Z,5
2017-08-28T04:04:45.627Z,5
2017-08-28T04:05:55.664Z,5
2017-08-28T04:07:06.036Z,5
2017-08-28T04:08:16.122Z,5
2017-08-28T04:09:28.125Z,5
2017-08-28T04:10:38.471Z,5
2017-08-28T04:11:48.817Z,10
2017-08-28T04:12:59.185Z,10
2017-08-28T04:14:09.575Z,10
2017-08-28T04:15:19.902Z,10
2017-08-28T04:16:30.245Z,10
2017-08-28T04:17:40.601Z,15
2017-08-28T04:18:50.938Z,15
2017-08-28T04:20:01.335Z,15
2017-08-28T04:21:12.678Z,15
2017-08-28T04:22:23.034Z,15
2017-08-28T04:23:33.716Z,20
2017-08-28T04:24:44.050Z,20
2017-08-28T04:25:54.427Z,20
2017-08-28T04:27:04.742Z,20
2017-08-28T04:28:15.107Z,15
2017-08-28T04:29:25.455Z,15
2017-08-28T04:30:35.802Z,15
2017-08-28T04:31:45.877Z,15
2017-08-28T04:32:56.211Z,15
2017-08-28T04:34:06.558Z,15
2017-08-28T04:35:16.892Z,15
2017-08-28T04:36:27.227Z,15
2017-08-28T04:37:37.322Z,15
2017-08-28T04:38:47.383Z,15
2017-08-28T04:39:57.400Z,20
2017-08-28T04:41:07.751Z,20
2017-08-28T04:42:17.461Z,20
2017-08-28T04:43:27.841Z,20
2017-08-28T04:44:38.243Z,20
2017-08-28T04:45:48.260Z,20
2017-08-28T04:46:58.307Z,25
2017-08-28T04:48:08.318Z,25
2017-08-28T04:49:18.665Z,25
2017-08-28T04:50:28.753Z,30
2017-08-28T04:51:38.780Z,30
2017-08-28T04:52:49.116Z,30
2017-08-28T04:53:59.467Z,30
2017-08-28T04:55:09.483Z,30
2017-08-28T04:56:18.928Z,30
2017-08-28T04:57:28.953Z,30
2017-08-28T04:58:39.301Z,30
2017-08-28T04:59:49.316Z,30
2017-08-28T05:00:59.360Z,30
2017-08-28T05:02:09.751Z,30
2017-08-28T05:03:20.084Z,35
2017-08-28T05:04:29.847Z,35
2017-08-28T05:05:39.868Z,40
2017-08-28T05:06:50.213Z,40
2017-08-28T05:08:00.302Z,40
2017-08-28T05:09:10.653Z,45
2017-08-28T05:10:20.356Z,50
2017-08-28T05:11:30.713Z,55
2017-08-28T05:12:41.061Z,55
2017-08-28T05:13:51.460Z,60
2017-08-28T05:15:01.815Z,60
2017-08-28T05:16:12.180Z,60
2017-08-28T05:17:22.527Z,65
2017-08-28T05:18:32.906Z,65
2017-08-28T05:19:43.000Z,70
2017-08-28T05:20:53.382Z,70
2017-08-28T05:22:03.100Z,70
2017-08-28T05:23:12.817Z,70
2017-08-28T05:24:22.863Z,70
2017-08-28T05:25:33.248Z,70
2017-08-28T05:26:43.275Z,65
2017-08-28T05:27:53.643Z,85
2017-08-28T05:29:03.730Z,70
2017-08-28T05:30:14.101Z,65
2017-08-28T05:31:24.497Z,65
2017-08-28T05:32:34.851Z,60
2017-08-28T05:33:45.208Z,60
2017-08-28T05:34:55.235Z,65
2017-08-28T05:36:05.254Z,70
2017-08-28T05:37:15.643Z,70
2017-08-28T05:38:25.998Z,70
2017-08-28T05:39:36.353Z,70
2017-08-28T05:40:46.398Z,70
2017-08-28T05:41:56.439Z,70
2017-08-28T05:43:06.843Z,70
2017-08-28T05:44:17.250Z,70
2017-08-28T05:45:27.586Z,70
2017-08-28T05:46:37.616Z,70
2017-08-28T05:47:47.965Z,70
2017-08-28T05:48:58.370Z,65
2017-08-28T05:50:08.714Z,70
2017-08-28T05:51:18.744Z,70
2017-08-28T05:52:29.082Z,65
2017-08-28T05:53:39.423Z,65
2017-08-28T05:54:49.813Z,65
2017-08-28T05:55:59.840Z,65
2017-08-28T05:57:10.225Z,70
2017-08-28T05:58:20.570Z,70
2017-08-28T05:59:30.916Z,75
2017-08-28T06:00:41.317Z,90
2017-08-28T06:01:51.343Z,105
2017-08-28T06:03:01.726Z,120
2017-08-28T06:04:11.760Z,135
2017-08-28T06:05:22.112Z,145
2017-08-28T06:06:32.156Z,150
2017-08-28T06:07:42.518Z,170
2017-08-28T06:08:52.880Z,190
2017-08-28T06:10:02.907Z,185
2017-08-28T06:11:13.269Z,175
2017-08-28T06:12:23.685Z,175
2017-08-28T06:13:33.723Z,175
2017-08-28T06:14:44.071Z,175
2017-08-28T06:15:54.453Z,175
2017-08-28T06:17:04.537Z,175
2017-08-28T06:18:14.885Z,170
2017-08-28T06:19:25.231Z,155
2017-08-28T06:20:35.578Z,160
2017-08-28T06:21:45.933Z,165
2017-08-28T06:22:56.331Z,170
2017-08-28T06:24:06.683Z,175
2017-08-28T06:25:16.724Z,185
2017-08-28T06:26:27.068Z,190
2017-08-28T06:27:37.117Z,190
2017-08-28T06:28:47.516Z,180
2017-08-28T06:29:57.868Z,170
2017-08-28T06:31:07.914Z,170
2017-08-28T06:32:17.940Z,165
2017-08-28T06:33:28.273Z,160
2017-08-28T06:34:38.349Z,160
2017-08-28T06:35:48.696Z,165
2017-08-28T06:36:59.038Z,165
2017-08-28T06:38:09.393Z,165
2017-08-28T06:39:19.421Z,170
2017-08-28T06:40:29.827Z,180
2017-08-28T06:41:39.866Z,190
2017-08-28T06:42:50.211Z,205
2017-08-28T06:44:00.254Z,210
2017-08-28T06:45:10.599Z,220
2017-08-28T06:46:20.375Z,220
2017-08-28T06:47:30.733Z,220
2017-08-28T06:48:40.757Z,225
2017-08-28T06:49:51.108Z,220
2017-08-28T06:51:01.173Z,215
2017-08-28T06:52:11.577Z,215
2017-08-28T06:53:21.916Z,215
2017-08-28T06:54:32.260Z,215
2017-08-28T06:55:42.550Z,210
2017-08-28T06:56:52.621Z,205
2017-08-28T06:58:02.701Z,210
2017-08-28T06:59:12.727Z,210
2017-08-28T07:00:22.755Z,220
2017-08-28T07:01:33.109Z,220
2017-08-28T07:02:43.511Z,220
2017-08-28T07:03:53.898Z,215
2017-08-28T07:05:04.277Z,210
2017-08-28T07:06:14.321Z,205
2017-08-28T07:07:24.650Z,200
2017-08-28T07:08:34.993Z,200
2017-08-28T07:09:45.406Z,205
2017-08-28T07:10:55.754Z,205
2017-08-28T07:12:06.107Z,210
2017-08-28T07:13:16.164Z,210
2017-08-28T07:14:26.224Z,205
2017-08-28T07:15:36.633Z,205
2017-08-28T07:16:46.964Z,200
2017-08-28T07:17:56.673Z,205
2017-08-28T07:19:07.026Z,200
2017-08-28T07:20:17.368Z,195
2017-08-28T07:21:27.445Z,200
2017-08-28T07:22:37.783Z,200
2017-08-28T07:23:47.504Z,210
2017-08-28T07:24:57.861Z,215
2017-08-28T07:26:07.888Z,220
2017-08-28T07:27:18.278Z,235
2017-08-28T07:28:28.671Z,240
2017-08-28T07:29:39.018Z,270
2017-08-28T07:30:49.367Z,270
2017-08-28T07:31:59.721Z,270
2017-08-28T07:33:10.120Z,250
2017-08-28T07:34:20.155Z,240
2017-08-28T07:35:30.501Z,230
2017-08-28T07:36:41.120Z,210
2017-08-28T07:37:51.474Z,185
2017-08-28T07:39:01.541Z,170
2017-08-28T07:40:11.902Z,165
2017-08-28T07:41:22.236Z,155
2017-08-28T07:42:32.601Z,150
2017-08-28T07:43:42.950Z,145
2017-08-28T07:44:52.711Z,145
2017-08-28T07:46:02.729Z,135
2017-08-28T07:47:14.971Z,135
2017-08-28T07:48:25.314Z,135
2017-08-28T07:49:35.667Z,135
2017-08-28T07:50:46.068Z,135
2017-08-28T07:51:56.141Z,135
2017-08-28T07:53:06.504Z,140
2017-08-28T07:54:16.850Z,140
2017-08-28T07:55:27.209Z,145
2017-08-28T07:56:37.601Z,150
2017-08-28T07:57:47.632Z,155
2017-08-28T07:58:57.973Z,165
2017-08-28T08:00:08.317Z,205
2017-08-28T08:01:18.350Z,210
2017-08-28T08:02:28.440Z,205
2017-08-28T08:03:38.801Z,205
2017-08-28T08:04:49.150Z,210
2017-08-28T08:05:59.494Z,205
2017-08-28T08:07:09.527Z,200
2017-08-28T08:08:19.919Z,210
2017-08-28T08:09:29.650Z,215
2017-08-28T08:10:40.000Z,210
2017-08-28T08:11:50.343Z,210
2017-08-28T08:13:00.682Z,205
2017-08-28T08:14:11.125Z,205
2017-08-28T08:15:20.838Z,205
2017-08-28T08:16:31.184Z,205
2017-08-28T08:17:41.214Z,205
2017-08-28T08:18:51.561Z,205
2017-08-28T08:20:01.960Z,205
2017-08-28T08:21:11.979Z,205
2017-08-28T08:22:21.995Z,190
2017-08-28T08:23:32.350Z,200
2017-08-28T08:24:42.705Z,205
2017-08-28T08:25:52.781Z,170
2017-08-28T08:27:03.134Z,205
2017-08-28T08:28:13.501Z,200
2017-08-28T08:29:24.040Z,205
2017-08-28T08:30:34.384Z,205
2017-08-28T08:31:44.781Z,205
2017-08-28T08:32:55.118Z,205
2017-08-28T08:34:05.475Z,205
2017-08-28T08:35:15.496Z,205
2017-08-28T08:36:25.851Z,205
2017-08-28T08:37:35.953Z,205
2017-08-28T08:38:46.299Z,205
2017-08-28T08:39:56.704Z,205
2017-08-28T08:41:07.088Z,205
2017-08-28T08:42:17.479Z,205
2017-08-28T08:43:27.909Z,200
2017-08-28T08:44:38.304Z,200
2017-08-28T08:45:48.672Z,205
2017-08-28T08:46:59.048Z,205
2017-08-28T08:48:09.116Z,205
2017-08-28T08:49:19.528Z,205
2017-08-28T08:50:29.592Z,205
2017-08-28T08:51:39.971Z,210
2017-08-28T08:52:50.418Z,210
2017-08-28T08:54:00.783Z,205
2017-08-28T08:55:11.216Z,210
2017-08-28T08:56:21.877Z,205
2017-08-28T08:57:32.279Z,205
2017-08-28T08:58:42.349Z,205
2017-08-28T08:59:52.107Z,210
2017-08-28T09:01:02.541Z,210
2017-08-28T09:02:12.617Z,210
2017-08-28T09:03:23.015Z,215
2017-08-28T09:04:33.074Z,210
2017-08-28T09:05:43.467Z,210
2017-08-28T09:06:54.177Z,215
2017-08-28T09:08:04.562Z,210
2017-08-28T09:09:14.659Z,210
2017-08-28T09:10:25.044Z,215
2017-08-28T09:11:35.413Z,215
2017-08-28T09:12:45.193Z,220
2017-08-28T09:13:55.585Z,225
2017-08-28T09:15:05.892Z,225
2017-08-28T09:16:16.260Z,210
2017-08-28T09:17:26.627Z,230
2017-08-28T09:18:36.740Z,215
2017-08-28T09:19:47.139Z,190
2017-08-28T09:20:57.518Z,200
2017-08-28T09:22:07.567Z,200
2017-08-28T09:23:17.620Z,205
2017-08-28T09:24:28.053Z,215
2017-08-28T09:25:38.118Z,220
2017-08-28T09:26:48.514Z,260
2017-08-28T09:27:58.559Z,260
2017-08-28T09:29:08.594Z,265
2017-08-28T09:30:19.010Z,255
2017-08-28T09:31:29.380Z,250
2017-08-28T09:32:39.747Z,245
2017-08-28T09:33:50.120Z,250
2017-08-28T09:35:00.486Z,250
2017-08-28T09:36:10.923Z,260
2017-08-28T09:37:21.298Z,270
2017-08-28T09:38:31.340Z,280
2017-08-28T09:39:41.743Z,310
2017-08-28T09:40:52.091Z,270
2017-08-28T09:42:02.169Z,290
2017-08-28T09:43:12.526Z,260
2017-08-28T09:44:22.887Z,270
2017-08-28T09:45:32.938Z,270
2017-08-28T09:46:43.273Z,270
2017-08-28T09:47:53.683Z,275
2017-08-28T09:49:04.037Z,295
2017-08-28T09:50:14.409Z,320
2017-08-28T09:51:24.757Z,335
2017-08-28T09:52:34.493Z,355
2017-08-28T09:53:45.169Z,340
2017-08-28T09:54:55.215Z,325
2017-08-28T09:56:05.549Z,295
2017-08-28T09:57:15.911Z,245
2017-08-28T09:58:25.979Z,240
2017-08-28T09:59:36.393Z,220
2017-08-28T10:00:46.122Z,220
2017-08-28T10:01:56.169Z,230
2017-08-28T10:03:06.544Z,250
2017-08-28T10:04:16.921Z,260
2017-08-28T10:05:27.344Z,265
2017-08-28T10:06:37.398Z,265
2017-08-28T10:07:47.755Z,270
2017-08-28T10:08:58.116Z,275
2017-08-28T10:10:08.475Z,275
2017-08-28T10:11:18.883Z,275
2017-08-28T10:12:28.917Z,275
2017-08-28T10:13:39.270Z,280
2017-08-28T10:14:49.630Z,285
2017-08-28T10:15:59.995Z,275
2017-08-28T10:17:10.410Z,265
2017-08-28T10:18:20.767Z,250
2017-08-28T10:19:31.118Z,245
2017-08-28T10:20:41.160Z,235
2017-08-28T10:21:51.524Z,230
2017-08-28T10:23:01.919Z,235
2017-08-28T10:24:11.637Z,235
2017-08-28T10:25:22.006Z,240
2017-08-28T10:26:32.379Z,245
2017-08-28T10:27:42.749Z,240
2017-08-28T10:28:53.159Z,230
2017-08-28T10:30:03.504Z,225
2017-08-28T10:31:13.551Z,220
2017-08-28T10:32:23.927Z,220
2017-08-28T10:33:33.652Z,225
2017-08-28T10:34:43.695Z,240
2017-08-28T10:35:54.103Z,300
2017-08-28T10:37:04.148Z,290
2017-08-28T10:38:14.525Z,300
2017-08-28T10:39:24.554Z,320
2017-08-28T10:40:34.920Z,335
2017-08-28T10:41:44.693Z,350
2017-08-28T10:42:55.065Z,330
2017-08-28T10:44:05.413Z,330
2017-08-28T10:45:16.521Z,310
2017-08-28T10:46:26.868Z,330
2017-08-28T10:47:37.267Z,325
2017-08-28T10:48:47.627Z,335
2017-08-28T10:49:57.987Z,335
2017-08-28T10:51:08.327Z,365
2017-08-28T10:52:18.692Z,365
2017-08-28T10:53:29.086Z,370
2017-08-28T10:54:39.119Z,315
2017-08-28T10:55:49.469Z,275
2017-08-28T10:56:59.807Z,255
2017-08-28T10:58:12.150Z,250
2017-08-28T10:59:22.548Z,240
2017-08-28T11:00:32.920Z,245
2017-08-28T11:01:42.972Z,290
2017-08-28T11:02:53.346Z,290
2017-08-28T11:04:03.694Z,295
2017-08-28T11:05:14.103Z,295
2017-08-28T11:06:24.452Z,295
2017-08-28T11:07:34.497Z,290
2017-08-28T11:08:44.889Z,290
2017-08-28T11:09:55.250Z,290
2017-08-28T11:11:05.632Z,285
2017-08-28T11:12:17.353Z,275
2017-08-28T11:13:27.734Z,275
2017-08-28T11:14:38.103Z,275
2017-08-28T11:15:48.503Z,275
2017-08-28T11:16:58.281Z,275
2017-08-28T11:18:08.340Z,275
2017-08-28T11:19:18.690Z,280
2017-08-28T11:20:28.739Z,280
2017-08-28T11:21:38.791Z,280
2017-08-28T11:22:49.200Z,295
2017-08-28T11:23:59.570Z,300
2017-08-28T11:25:09.965Z,310
2017-08-28T11:26:20.320Z,310
2017-08-28T11:27:30.356Z,260
2017-08-28T11:28:40.787Z,300
2017-08-28T11:29:51.140Z,320
2017-08-28T11:31:01.184Z,250
2017-08-28T11:32:11.538Z,240
2017-08-28T11:33:21.893Z,230
2017-08-28T11:34:32.319Z,290
2017-08-28T11:35:42.691Z,280
2017-08-28T11:36:53.056Z,245
2017-08-28T11:38:04.092Z,255
2017-08-28T11:39:14.463Z,210
2017-08-28T11:40:24.541Z,200
2017-08-28T11:41:34.902Z,260
2017-08-28T11:42:45.280Z,220
2017-08-28T11:43:55.653Z,195
2017-08-28T11:45:05.711Z,240
2017-08-28T11:46:16.122Z,255
2017-08-28T11:47:26.476Z,260
2017-08-28T11:48:36.538Z,255
2017-08-28T11:49:46.900Z,250
2017-08-28T11:50:57.257Z,255
2017-08-28T11:52:07.344Z,255
2017-08-28T11:53:17.373Z,250
2017-08-28T11:54:27.427Z,250
2017-08-28T11:55:37.781Z,255
2017-08-28T11:56:48.133Z,255
2017-08-28T11:57:58.507Z,255
2017-08-28T11:59:09.368Z,255
2017-08-28T12:00:23.544Z,255
2017-08-28T12:01:33.785Z,255
2017-08-28T12:02:44.209Z,260
2017-08-28T12:03:54.586Z,270
2017-08-28T12:05:04.649Z,275
2017-08-28T12:06:15.011Z,285
2017-08-28T12:07:25.043Z,300
2017-08-28T12:08:35.116Z,245
2017-08-28T12:09:45.502Z,255
2017-08-28T12:10:55.870Z,270
2017-08-28T12:12:06.234Z,345
2017-08-28T12:13:16.293Z,355
2017-08-28T12:14:26.397Z,340
2017-08-28T12:15:36.740Z,275
2017-08-28T12:16:47.086Z,290
2017-08-28T12:17:57.155Z,245
2017-08-28T12:19:07.200Z,235
2017-08-28T12:20:17.609Z,225
2017-08-28T12:21:28.010Z,215
2017-08-28T12:22:38.366Z,205
2017-08-28T12:23:48.738Z,200
2017-08-28T12:24:59.100Z,190
2017-08-28T12:26:09.516Z,190
2017-08-28T12:27:19.559Z,185
2017-08-28T12:28:29.295Z,175
2017-08-28T12:29:39.652Z,170
2017-08-28T12:30:51.387Z,170
2017-08-28T12:32:02.859Z,165
2017-08-28T12:33:13.209Z,165
2017-08-28T12:34:23.574Z,160
2017-08-28T12:35:33.935Z,150
2017-08-28T12:36:44.296Z,145
2017-08-28T12:37:54.720Z,140
2017-08-28T12:39:05.077Z,140
2017-08-28T12:40:15.129Z,145
2017-08-28T12:41:25.490Z,155
2017-08-28T12:42:35.852Z,150
2017-08-28T12:43:46.290Z,155
2017-08-28T12:44:56.539Z,160
2017-08-28T12:46:06.912Z,170
2017-08-28T12:47:17.295Z,170
2017-08-28T12:48:27.666Z,165
2017-08-28T12:49:37.131Z,165
2017-08-28T12:50:47.492Z,165
2017-08-28T12:51:58.245Z,170
2017-08-28T12:53:09.719Z,170
2017-08-28T12:54:19.765Z,170
2017-08-28T12:55:30.176Z,175
2017-08-28T12:56:40.531Z,175
2017-08-28T12:57:50.903Z,175
2017-08-28T12:59:00.968Z,180
2017-08-28T13:00:11.361Z,175
2017-08-28T13:01:21.770Z,170
2017-08-28T13:02:32.130Z,170
2017-08-28T13:03:42.487Z,175
2017-08-28T13:04:52.853Z,175
2017-08-28T13:06:03.233Z,175
2017-08-28T13:07:13.654Z,175
2017-08-28T13:08:23.394Z,180
2017-08-28T13:09:33.743Z,185
2017-08-28T13:10:44.097Z,230
2017-08-28T13:11:54.458Z,195
2017-08-28T13:13:04.875Z,210
2017-08-28T13:14:15.241Z,230
2017-08-28T13:15:27.046Z,235
2017-08-28T13:16:37.394Z,240
2017-08-28T13:17:48.410Z,250
2017-08-28T13:18:58.852Z,315
2017-08-28T13:20:09.234Z,305
2017-08-28T13:21:19.636Z,240
2017-08-28T13:22:30.005Z,300
2017-08-28T13:23:40.355Z,225
2017-08-28T13:24:50.775Z,225
2017-08-28T13:26:01.143Z,230
2017-08-28T13:27:11.502Z,285
2017-08-28T13:28:21.846Z,300
2017-08-28T13:29:31.871Z,290
2017-08-28T13:30:42.289Z,230
2017-08-28T13:31:52.373Z,260
2017-08-28T13:33:02.411Z,190
2017-08-28T13:34:12.795Z,210
2017-08-28T13:35:23.149Z,255
2017-08-28T13:36:33.553Z,250
2017-08-28T13:37:43.949Z,205
2017-08-28T13:38:54.300Z,185
2017-08-28T13:40:04.703Z,230
2017-08-28T13:41:15.089Z,185
2017-08-28T13:42:25.198Z,180
2017-08-28T13:43:35.572Z,185
2017-08-28T13:44:48.847Z,190
2017-08-28T13:45:58.892Z,180
2017-08-28T13:47:09.284Z,170
2017-08-28T13:48:19.687Z,205
2017-08-28T13:49:30.076Z,235
2017-08-28T13:50:40.435Z,235
2017-08-28T13:51:50.141Z,185
2017-08-28T13:53:00.493Z,175
2017-08-28T13:54:10.894Z,175
2017-08-28T13:55:21.008Z,185
2017-08-28T13:56:31.385Z,195
2017-08-28T13:57:41.750Z,235
2017-08-28T13:58:51.821Z,230
2017-08-28T14:00:02.231Z,230
2017-08-28T14:01:12.596Z,230
2017-08-28T14:02:22.949Z,230
2017-08-28T14:03:33.309Z,235
2017-08-28T14:04:43.681Z,230
2017-08-28T14:05:54.342Z,235
2017-08-28T14:07:04.709Z,185
2017-08-28T14:08:14.780Z,180
2017-08-28T14:09:25.144Z,155
2017-08-28T14:10:35.207Z,175
2017-08-28T14:11:45.626Z,145
2017-08-28T14:12:56.008Z,200
2017-08-28T14:14:06.376Z,190
2017-08-28T14:15:16.415Z,200
2017-08-28T14:16:26.481Z,205
2017-08-28T14:17:36.957Z,200
2017-08-28T14:18:47.046Z,195
2017-08-28T14:19:57.417Z,200
2017-08-28T14:21:07.485Z,200
2017-08-28T14:22:17.870Z,195
2017-08-28T14:23:28.311Z,195
2017-08-28T14:24:38.712Z,180
2017-08-28T14:25:49.083Z,165
2017-08-28T14:26:59.134Z,160
2017-08-28T14:28:09.179Z,165
2017-08-28T14:29:19.586Z,170
2017-08-28T14:30:29.964Z,170
2017-08-28T14:31:40.365Z,175
2017-08-28T14:32:50.748Z,185
2017-08-28T14:34:00.798Z,190
2017-08-28T14:35:11.250Z,185
2017-08-28T14:36:21.612Z,180
2017-08-28T14:37:31.994Z,175
2017-08-28T14:38:42.380Z,195
2017-08-28T14:39:52.762Z,190
2017-08-28T14:41:03.197Z,195
2017-08-28T14:42:13.587Z,195
2017-08-28T14:43:23.979Z,200
2017-08-28T14:44:34.028Z,205
2017-08-28T14:45:44.433Z,180
2017-08-28T14:46:54.547Z,200
2017-08-28T14:48:04.927Z,215
2017-08-28T14:49:15.317Z,215
2017-08-28T14:50:25.032Z,210
2017-08-28T14:51:35.428Z,205
2017-08-28T14:52:45.529Z,200
2017-08-28T14:53:55.312Z,195
2017-08-28T14:55:05.396Z,155
2017-08-28T14:56:15.793Z,145
2017-08-28T14:57:26.181Z,155
2017-08-28T14:58:36.622Z,175
2017-08-28T14:59:47.007Z,130
2017-08-28T15:00:57.428Z,130
2017-08-28T15:02:07.813Z,165
2017-08-28T15:03:18.191Z,165
2017-08-28T15:04:28.624Z,160
2017-08-28T15:05:39.000Z,160
2017-08-28T15:06:49.390Z,160
2017-08-28T15:07:59.459Z,155
2017-08-28T15:09:09.848Z,155
2017-08-28T15:10:20.289Z,155
2017-08-28T15:11:30.658Z,155
2017-08-28T15:12:41.052Z,145
2017-08-28T15:13:51.122Z,145
2017-08-28T15:15:01.534Z,120
2017-08-28T15:16:11.969Z,130
2017-08-28T15:17:22.347Z,140
2017-08-28T15:18:32.411Z,140
2017-08-28T15:19:42.808Z,140
2017-08-28T15:20:52.876Z,135
2017-08-28T15:22:03.324Z,135
2017-08-28T15:23:13.066Z,100
2017-08-28T15:24:23.481Z,105
2017-08-28T15:25:33.851Z,95
2017-08-28T15:26:44.225Z,100
2017-08-28T15:27:54.668Z,100
2017-08-28T15:29:05.053Z,130
2017-08-28T15:30:15.442Z,135
2017-08-28T15:31:25.842Z,135
2017-08-28T15:32:36.978Z,135
2017-08-28T15:33:47.440Z,130
2017-08-28T15:34:57.806Z,130
2017-08-28T15:36:08.185Z,130
2017-08-28T15:37:31.361Z,130
2017-08-28T15:38:41.478Z,130
2017-08-28T15:39:51.874Z,130
2017-08-28T15:41:01.927Z,130
2017-08-28T15:42:11.997Z,125
2017-08-28T15:43:22.399Z,125
2017-08-28T15:44:32.841Z,125
2017-08-28T15:45:43.226Z,125
2017-08-28T15:46:53.278Z,125
2017-08-28T15:48:03.652Z,125
2017-08-28T15:49:14.024Z,125
2017-08-28T15:50:24.129Z,125
2017-08-28T15:51:34.501Z,125
2017-08-28T15:52:44.870Z,125
2017-08-28T15:53:55.237Z,120
2017-08-28T15:55:05.606Z,120
2017-08-28T15:56:16.101Z,125
2017-08-28T15:57:26.494Z,125
2017-08-28T15:58:36.872Z,125
2017-08-28T15:59:46.932Z,125
2017-08-28T16:00:57.313Z,125
2017-08-28T16:02:07.797Z,125
2017-08-28T16:03:18.186Z,125
2017-08-28T16:04:28.252Z,125
2017-08-28T16:05:38.306Z,125
2017-08-28T16:06:48.675Z,125
2017-08-28T16:07:59.133Z,125
2017-08-28T16:09:09.507Z,125
2017-08-28T16:10:19.908Z,125
2017-08-28T16:11:30.256Z,120
2017-08-28T16:12:40.322Z,115
2017-08-28T16:13:50.773Z,115
2017-08-28T16:15:01.177Z,115
2017-08-28T16:16:11.574Z,115
2017-08-28T16:17:21.969Z,120
2017-08-28T16:18:32.001Z,115
2017-08-28T16:19:42.105Z,110
2017-08-28T16:20:52.488Z,110
2017-08-28T16:22:02.887Z,105
2017-08-28T16:23:13.252Z,100
2017-08-28T16:24:23.651Z,95
2017-08-28T16:25:34.089Z,90
2017-08-28T16:26:44.475Z,85
2017-08-28T16:27:54.775Z,85
2017-08-28T16:29:04.833Z,85
2017-08-28T16:30:15.233Z,85
2017-08-28T16:31:25.353Z,90
2017-08-28T16:32:35.742Z,80
2017-08-28T16:33:46.110Z,80
2017-08-28T16:34:56.481Z,80
2017-08-28T16:36:06.848Z,75
2017-08-28T16:37:17.295Z,75
2017-08-28T16:38:27.691Z,75
2017-08-28T16:39:37.751Z,75
2017-08-28T16:40:47.813Z,75
2017-08-28T16:41:57.881Z,70
2017-08-28T16:43:08.332Z,65
2017-08-28T16:44:18.705Z,65
2017-08-28T16:45:28.792Z,65
2017-08-28T16:46:39.189Z,60
2017-08-28T16:47:49.281Z,60
2017-08-28T16:48:59.748Z,60
2017-08-28T16:50:10.158Z,55
2017-08-28T16:51:20.557Z,50
2017-08-28T16:52:32.620Z,50
2017-08-28T16:53:43.770Z,45
2017-08-28T16:54:54.208Z,45
2017-08-28T16:56:04.619Z,45
2017-08-28T16:57:15.000Z,45
2017-08-28T16:58:25.389Z,45
2017-08-28T16:59:35.764Z,45